Shawbridge, Canada
Current Conditions -  °F | °C
As of 11:00 PM on Thursday 18 Dec 2014 (Local Time) from CYMX Reporting Station
Overcast Overcast  
Wind Chill: 27°   Ceiling: 2100
Heat Index: 27°   Visibility: 25mi
Dew Point: 23°   Wind: 3mph
Humidity: 86%   Direction: 280°W
Pressure: 29.94"   Gusts: NA
Location:  45.87°N, 74.08°W
Report Text: CYMX 190400Z 28003KT 240V310 25SM BKN021 OVC065 M03/M05 A2994 RMK SC6SC2 SLP144
Loading
Personal Weather Stations






























Interactive Weather Map New forecast layout! Learn more

10-Day Weather Forecast

Advertisements
Track Severe Weather on mobile